createdAt,value
2022-12-31T00:01:41.279Z,16.70
2022-12-31T00:04:10.282Z,16.80
2022-12-31T00:06:39.533Z,16.80
2022-12-31T00:09:09.583Z,16.90
2022-12-31T00:11:39.324Z,17.00
2022-12-31T00:14:08.687Z,17.10
2022-12-31T00:16:39.936Z,17.10
2022-12-31T00:19:11.177Z,17.20
2022-12-31T00:21:40.511Z,17.20
2022-12-31T00:24:09.989Z,17.20
2022-12-31T00:26:39.006Z,17.30
2022-12-31T00:29:08.116Z,17.40
2022-12-31T00:31:39.013Z,17.50
2022-12-31T00:34:08.870Z,17.50
2022-12-31T00:36:40.514Z,17.60
2022-12-31T00:39:10.053Z,17.70
2022-12-31T00:41:39.281Z,17.70
2022-12-31T00:44:08.388Z,17.70
2022-12-31T00:49:04.324Z,17.90
2022-12-31T00:51:33.389Z,17.90
2022-12-31T00:54:02.460Z,18.00
2022-12-31T00:56:33.143Z,18.10
2022-12-31T00:59:02.231Z,18.10
2022-12-31T01:01:40.568Z,18.20
2022-12-31T01:04:14.859Z,18.30
2022-12-31T01:06:44.089Z,18.40
2022-12-31T01:09:14.725Z,18.60
2022-12-31T01:11:44.100Z,18.60
2022-12-31T01:14:18.081Z,18.70
2022-12-31T01:16:52.776Z,18.80
2022-12-31T01:19:25.321Z,18.80
2022-12-31T01:21:54.666Z,18.90
2022-12-31T01:24:24.082Z,19.00
2022-12-31T01:26:53.605Z,19.00
2022-12-31T01:29:22.598Z,19.10
2022-12-31T01:31:51.614Z,19.20
2022-12-31T01:34:20.701Z,19.30
2022-12-31T01:36:49.719Z,19.50
2022-12-31T01:39:18.777Z,19.60
2022-12-31T01:41:49.296Z,19.70
2022-12-31T01:44:27.008Z,19.80
2022-12-31T01:47:00.354Z,20.00
2022-12-31T01:49:38.174Z,20.10
2022-12-31T01:52:14.919Z,20.10
2022-12-31T01:54:50.536Z,20.10
2022-12-31T01:57:20.018Z,20.20
2022-12-31T01:59:49.064Z,20.20
2022-12-31T02:02:18.410Z,20.40
2022-12-31T02:04:47.839Z,20.50
2022-12-31T02:07:16.855Z,20.70
2022-12-31T02:09:45.997Z,20.80
2022-12-31T02:12:15.001Z,21.00
2022-12-31T02:14:51.089Z,21.10
2022-12-31T02:17:35.369Z,21.40
2022-12-31T02:20:22.582Z,21.60
2022-12-31T02:22:54.519Z,21.70
2022-12-31T02:25:42.064Z,21.80
2022-12-31T02:28:19.989Z,22.00
2022-12-31T02:31:02.241Z,22.10
2022-12-31T02:34:23.132Z,22.20
2022-12-31T02:36:56.507Z,22.40
2022-12-31T02:39:25.562Z,22.60
2022-12-31T02:41:54.991Z,22.70
2022-12-31T02:44:28.450Z,22.90
2022-12-31T02:47:13.327Z,23.10
2022-12-31T02:50:00.749Z,23.30
2022-12-31T02:52:40.242Z,23.30
2022-12-31T02:55:28.079Z,23.30
2022-12-31T02:58:00.262Z,23.30
2022-12-31T03:00:50.639Z,23.40
2022-12-31T03:03:21.813Z,23.50
2022-12-31T03:05:51.577Z,23.60
2022-12-31T03:08:27.959Z,23.60
2022-12-31T03:10:58.107Z,23.70
2022-12-31T03:13:27.094Z,23.80
2022-12-31T03:15:56.191Z,23.90
2022-12-31T03:18:45.012Z,24.10
2022-12-31T03:21:33.931Z,24.20
2022-12-31T03:24:20.754Z,24.30
2022-12-31T03:26:49.725Z,24.30
2022-12-31T03:29:18.673Z,24.50
2022-12-31T03:31:47.688Z,24.60
2022-12-31T03:34:16.758Z,24.70
2022-12-31T03:36:45.700Z,24.80
2022-12-31T03:39:14.655Z,24.90
2022-12-31T03:41:43.625Z,24.90
2022-12-31T03:44:12.618Z,25.00
2022-12-31T03:46:41.590Z,25.10
2022-12-31T03:49:10.678Z,25.10
2022-12-31T03:51:39.683Z,25.20
2022-12-31T03:54:08.910Z,25.30
2022-12-31T03:56:37.944Z,25.40
2022-12-31T03:59:06.931Z,25.50
2022-12-31T04:01:35.949Z,25.60
2022-12-31T04:04:04.980Z,25.60
2022-12-31T04:06:33.922Z,25.70
2022-12-31T04:09:02.863Z,25.80
2022-12-31T04:11:31.856Z,25.90
2022-12-31T04:14:00.835Z,26.00
2022-12-31T04:16:29.891Z,26.00
2022-12-31T04:18:59.037Z,26.00
2022-12-31T04:21:34.639Z,26.00
2022-12-31T04:24:04.267Z,26.00
2022-12-31T04:26:33.489Z,25.90
2022-12-31T04:29:02.489Z,25.90
2022-12-31T04:31:31.556Z,25.90
2022-12-31T04:34:00.742Z,25.80
2022-12-31T04:36:29.748Z,25.70
2022-12-31T04:38:58.751Z,25.80
2022-12-31T04:41:28.271Z,25.80
2022-12-31T04:43:59.392Z,25.80
2022-12-31T04:46:33.371Z,25.90
2022-12-31T04:49:02.254Z,26.00
2022-12-31T04:51:32.265Z,26.10
2022-12-31T04:54:01.590Z,26.10
2022-12-31T04:56:30.987Z,26.10
2022-12-31T04:59:00.600Z,26.10
2022-12-31T05:01:29.641Z,26.10
2022-12-31T05:03:59.758Z,26.10
2022-12-31T05:06:28.707Z,26.20
2022-12-31T05:08:57.743Z,26.30
2022-12-31T05:11:26.789Z,26.30
2022-12-31T05:13:55.735Z,26.30
2022-12-31T05:16:24.772Z,26.30
2022-12-31T05:18:53.821Z,26.20
2022-12-31T05:21:23.754Z,26.30
2022-12-31T05:23:52.729Z,26.40
2022-12-31T05:26:21.750Z,26.40
2022-12-31T05:28:50.652Z,26.40
2022-12-31T05:31:19.627Z,26.30
2022-12-31T05:33:48.712Z,26.20
2022-12-31T05:36:18.698Z,26.20
2022-12-31T05:38:47.739Z,26.10
2022-12-31T05:41:16.686Z,26.10
2022-12-31T05:43:45.663Z,26.10
2022-12-31T05:46:14.750Z,26.20
2022-12-31T05:48:43.747Z,26.20
2022-12-31T05:51:12.728Z,26.20
2022-12-31T05:53:41.786Z,26.20
2022-12-31T05:56:10.796Z,26.30
2022-12-31T05:58:39.725Z,26.40
2022-12-31T06:01:08.722Z,26.40
2022-12-31T06:03:37.723Z,26.50
2022-12-31T06:06:06.969Z,26.60
2022-12-31T06:08:35.943Z,26.50
2022-12-31T06:11:05.605Z,26.60
2022-12-31T06:13:34.651Z,26.60
2022-12-31T06:16:11.169Z,26.70
2022-12-31T06:18:40.198Z,26.80
2022-12-31T06:21:09.333Z,27.00
2022-12-31T06:23:38.306Z,27.00
2022-12-31T06:26:08.104Z,27.10
2022-12-31T06:28:37.254Z,27.10
2022-12-31T06:31:08.619Z,27.20
2022-12-31T06:33:38.341Z,27.20
2022-12-31T06:36:10.310Z,27.20
2022-12-31T06:38:44.429Z,27.30
2022-12-31T06:41:15.253Z,27.40
2022-12-31T06:43:45.192Z,27.40
2022-12-31T06:46:17.168Z,27.50
2022-12-31T06:48:47.097Z,27.60
2022-12-31T06:51:18.939Z,27.80
2022-12-31T06:53:50.155Z,27.80
2022-12-31T06:56:26.515Z,27.90
2022-12-31T06:58:58.882Z,27.80
2022-12-31T07:01:42.991Z,27.80
2022-12-31T07:04:11.550Z,27.80
2022-12-31T07:06:57.612Z,27.80
2022-12-31T07:10:00.994Z,27.90
2022-12-31T07:12:36.436Z,27.90
2022-12-31T07:15:14.163Z,28.00
2022-12-31T07:17:55.229Z,28.10
2022-12-31T07:20:24.572Z,28.20
2022-12-31T07:22:53.817Z,28.20
2022-12-31T07:25:24.608Z,28.20
2022-12-31T07:28:18.240Z,28.10
2022-12-31T07:30:53.439Z,28.20
2022-12-31T07:34:01.740Z,28.30
2022-12-31T07:36:49.012Z,28.40
2022-12-31T07:39:33.404Z,28.40
2022-12-31T07:42:02.291Z,28.60
2022-12-31T07:44:51.184Z,28.70
2022-12-31T07:47:26.504Z,28.70
2022-12-31T07:49:56.521Z,28.80
2022-12-31T07:52:25.895Z,28.80
2022-12-31T07:54:54.975Z,28.80
2022-12-31T07:57:31.489Z,28.80
2022-12-31T08:00:10.938Z,28.80
2022-12-31T08:03:18.208Z,28.80
2022-12-31T08:05:56.281Z,28.80
2022-12-31T08:08:47.747Z,28.80
2022-12-31T08:11:42.986Z,28.80
2022-12-31T08:14:14.676Z,28.90
2022-12-31T08:16:44.031Z,29.00
2022-12-31T08:19:33.919Z,29.00
2022-12-31T08:22:33.379Z,29.00
2022-12-31T08:25:18.111Z,29.00
2022-12-31T08:27:56.044Z,29.00
2022-12-31T08:30:28.904Z,29.00
2022-12-31T08:33:21.038Z,28.90
2022-12-31T08:36:06.510Z,28.80
2022-12-31T08:39:00.695Z,28.70
2022-12-31T08:41:32.398Z,28.70
2022-12-31T08:44:24.261Z,28.70
2022-12-31T08:47:05.405Z,28.60
2022-12-31T08:49:36.863Z,28.60
2022-12-31T08:52:10.797Z,28.50
2022-12-31T08:54:40.026Z,28.50
2022-12-31T08:57:18.411Z,28.40
2022-12-31T08:59:53.500Z,28.30
2022-12-31T09:02:57.223Z,28.30
2022-12-31T09:05:54.667Z,28.20
2022-12-31T09:08:57.074Z,28.10
2022-12-31T09:12:05.505Z,28.10
2022-12-31T09:14:42.771Z,27.90
2022-12-31T09:17:50.793Z,27.90
2022-12-31T09:20:42.221Z,27.80
2022-12-31T09:23:13.843Z,27.80
2022-12-31T09:26:02.450Z,27.70
2022-12-31T09:28:52.722Z,27.70
2022-12-31T09:31:42.059Z,27.60
2022-12-31T09:34:34.648Z,27.50
2022-12-31T09:37:23.702Z,27.50
2022-12-31T09:39:52.814Z,27.40
2022-12-31T09:42:34.209Z,27.30
2022-12-31T09:45:21.428Z,27.30
2022-12-31T09:48:08.591Z,27.20
2022-12-31T09:51:00.959Z,27.10
2022-12-31T09:54:06.428Z,27.10
2022-12-31T09:56:41.514Z,27.00
2022-12-31T09:59:31.400Z,26.90
2022-12-31T10:02:38.918Z,26.80
2022-12-31T10:05:50.992Z,26.70
2022-12-31T10:08:41.320Z,26.60
2022-12-31T10:11:28.762Z,26.60
2022-12-31T10:14:18.812Z,26.50
2022-12-31T10:17:00.352Z,26.40
2022-12-31T10:19:56.984Z,26.30
2022-12-31T10:22:34.964Z,26.20
2022-12-31T10:25:06.674Z,26.10
2022-12-31T10:28:00.063Z,26.10
2022-12-31T10:30:35.223Z,26.00
2022-12-31T10:33:33.528Z,25.90
2022-12-31T10:36:22.336Z,25.80
2022-12-31T10:39:17.662Z,25.80
2022-12-31T10:42:13.449Z,25.70
2022-12-31T10:45:09.990Z,25.60
2022-12-31T10:48:11.146Z,25.50
2022-12-31T10:51:20.169Z,25.50
2022-12-31T10:54:04.331Z,25.40
2022-12-31T10:56:42.891Z,25.30
2022-12-31T10:59:32.984Z,25.30
2022-12-31T11:02:29.609Z,25.20
2022-12-31T11:05:30.799Z,25.10
2022-12-31T11:08:33.380Z,25.10
2022-12-31T11:11:14.527Z,25.00
2022-12-31T11:14:01.666Z,24.90
2022-12-31T11:16:53.756Z,24.90
2022-12-31T11:19:41.127Z,24.80
2022-12-31T11:22:25.463Z,24.80
2022-12-31T11:25:12.472Z,24.80
2022-12-31T11:28:10.111Z,24.70
2022-12-31T11:30:41.903Z,24.70
2022-12-31T11:33:32.563Z,24.60
2022-12-31T11:36:39.881Z,24.60
2022-12-31T11:39:42.503Z,24.60
2022-12-31T11:42:45.619Z,24.50
2022-12-31T11:45:32.883Z,24.50
2022-12-31T11:48:31.627Z,24.40
2022-12-31T11:51:28.726Z,24.40
2022-12-31T11:54:32.577Z,24.30
2022-12-31T11:57:06.014Z,24.30
2022-12-31T11:59:35.009Z,24.30
2022-12-31T12:02:22.957Z,24.20
2022-12-31T12:04:56.118Z,24.20
2022-12-31T12:07:26.275Z,24.10
2022-12-31T12:09:57.323Z,24.10
2022-12-31T12:12:26.343Z,24.00
2022-12-31T12:14:56.467Z,24.00
2022-12-31T12:17:35.551Z,24.00
2022-12-31T12:20:16.143Z,23.90
2022-12-31T12:22:53.710Z,23.90
2022-12-31T12:25:25.263Z,23.90
2022-12-31T12:27:55.897Z,23.90
2022-12-31T12:30:28.321Z,23.80
2022-12-31T12:33:02.908Z,23.80
2022-12-31T12:35:35.144Z,23.80
2022-12-31T12:38:07.546Z,23.80
2022-12-31T12:40:36.842Z,23.70
2022-12-31T12:43:05.803Z,23.70
2022-12-31T12:45:52.307Z,23.70
2022-12-31T12:48:43.869Z,23.60
2022-12-31T12:51:34.909Z,23.60
2022-12-31T12:54:40.540Z,23.60
2022-12-31T12:57:21.045Z,23.50
2022-12-31T13:00:16.735Z,23.50
2022-12-31T13:03:10.252Z,23.50
2022-12-31T13:06:14.276Z,23.40
2022-12-31T13:08:43.226Z,23.40
2022-12-31T13:11:48.797Z,23.40
2022-12-31T13:14:25.901Z,23.40
2022-12-31T13:16:55.020Z,23.30
2022-12-31T13:19:45.940Z,23.20
2022-12-31T13:22:21.004Z,23.20
2022-12-31T13:25:06.808Z,23.10
2022-12-31T13:27:46.739Z,23.10
2022-12-31T13:30:22.359Z,23.00
2022-12-31T13:33:11.381Z,23.00
2022-12-31T13:35:51.009Z,22.90
2022-12-31T13:38:30.700Z,22.90
2022-12-31T13:41:02.803Z,22.80
2022-12-31T13:44:02.338Z,22.80
2022-12-31T13:46:46.374Z,22.70
2022-12-31T13:49:21.084Z,22.70
2022-12-31T13:52:00.731Z,22.60
2022-12-31T13:54:38.925Z,22.50
2022-12-31T13:57:35.254Z,22.50
2022-12-31T14:00:25.360Z,22.40
2022-12-31T14:03:05.873Z,22.40
2022-12-31T14:05:44.325Z,22.30
2022-12-31T14:08:13.350Z,22.30
2022-12-31T14:11:08.655Z,22.30
2022-12-31T14:13:53.380Z,22.20
2022-12-31T14:16:27.103Z,22.20
2022-12-31T14:19:32.359Z,22.10
2022-12-31T14:22:03.188Z,22.10
2022-12-31T14:24:45.724Z,22.00
2022-12-31T14:27:42.665Z,22.00
2022-12-31T14:30:37.835Z,21.90
2022-12-31T14:33:15.992Z,21.90
2022-12-31T14:36:21.304Z,21.80
2022-12-31T14:39:15.321Z,21.80
2022-12-31T14:42:05.461Z,21.70
2022-12-31T14:44:34.435Z,21.60
2022-12-31T14:47:21.810Z,21.60
2022-12-31T14:50:32.372Z,21.60
2022-12-31T14:53:01.319Z,21.50
2022-12-31T14:55:44.547Z,21.50
2022-12-31T14:58:33.525Z,21.50
2022-12-31T15:01:16.425Z,21.40
2022-12-31T15:03:46.563Z,21.40
2022-12-31T15:06:24.945Z,21.30
2022-12-31T15:09:18.084Z,21.30
2022-12-31T15:11:53.062Z,21.30
2022-12-31T15:14:37.383Z,21.20
2022-12-31T15:17:06.988Z,21.20
2022-12-31T15:20:19.557Z,21.20
2022-12-31T15:22:53.691Z,21.10
2022-12-31T15:25:30.170Z,21.10
2022-12-31T15:28:06.205Z,21.10
2022-12-31T15:30:45.510Z,21.00
2022-12-31T15:33:42.767Z,21.00
2022-12-31T15:36:21.530Z,20.90
2022-12-31T15:38:51.426Z,20.90
2022-12-31T15:42:03.071Z,20.90
2022-12-31T15:44:56.521Z,20.90
2022-12-31T15:47:42.988Z,20.80
2022-12-31T15:50:21.910Z,20.80
2022-12-31T15:52:59.738Z,20.80
2022-12-31T15:55:45.870Z,20.70
2022-12-31T15:58:19.799Z,20.70
2022-12-31T16:01:45.745Z,20.60
2022-12-31T16:04:30.046Z,20.60
2022-12-31T16:07:04.900Z,20.60
2022-12-31T16:09:37.060Z,20.60
2022-12-31T16:12:13.065Z,20.50
2022-12-31T16:14:46.512Z,20.50
2022-12-31T16:17:31.997Z,20.50
2022-12-31T16:20:02.910Z,20.40
2022-12-31T16:22:40.099Z,20.40
2022-12-31T16:25:36.818Z,20.30
2022-12-31T16:28:06.081Z,20.30
2022-12-31T16:30:39.035Z,20.30
2022-12-31T16:33:14.109Z,20.20
2022-12-31T16:35:43.139Z,20.20
2022-12-31T16:38:16.401Z,20.20
2022-12-31T16:41:08.675Z,20.10
2022-12-31T16:43:44.992Z,20.10
2022-12-31T16:46:31.022Z,20.10
2022-12-31T16:49:08.093Z,20.10
2022-12-31T16:51:39.631Z,20.00
2022-12-31T16:54:40.666Z,20.00
2022-12-31T16:57:17.566Z,20.00
2022-12-31T16:59:48.591Z,19.90
2022-12-31T17:02:42.062Z,19.90
2022-12-31T17:05:26.979Z,19.80
2022-12-31T17:07:56.529Z,19.80
2022-12-31T17:10:37.588Z,19.80
2022-12-31T17:13:30.974Z,19.70
2022-12-31T17:16:01.224Z,19.70
2022-12-31T17:18:37.283Z,19.70
2022-12-31T17:21:12.000Z,19.60
2022-12-31T17:23:42.442Z,19.60
2022-12-31T17:26:16.965Z,19.60
2022-12-31T17:28:51.297Z,19.50
2022-12-31T17:31:40.113Z,19.50
2022-12-31T17:34:23.648Z,19.40
2022-12-31T17:37:13.022Z,19.40
2022-12-31T17:39:54.937Z,19.30
2022-12-31T17:42:36.045Z,19.30
2022-12-31T17:45:10.503Z,19.30
2022-12-31T17:47:42.856Z,19.20
2022-12-31T17:50:30.537Z,19.20
2022-12-31T17:53:25.912Z,19.20
2022-12-31T17:56:01.909Z,19.20
2022-12-31T17:58:46.027Z,19.10
2022-12-31T18:01:17.475Z,19.10
2022-12-31T18:03:47.064Z,19.00
2022-12-31T18:06:20.359Z,19.00
2022-12-31T18:08:49.517Z,19.00
2022-12-31T18:11:24.390Z,18.90
2022-12-31T18:13:55.324Z,18.90
2022-12-31T18:16:24.283Z,18.90
2022-12-31T18:18:53.279Z,18.90
2022-12-31T18:21:31.527Z,18.90
2022-12-31T18:26:30.786Z,18.80
2022-12-31T18:29:03.497Z,18.80
2022-12-31T18:31:32.917Z,18.80
2022-12-31T18:34:01.968Z,18.70
2022-12-31T18:36:31.304Z,18.70
2022-12-31T18:39:00.335Z,18.70
2022-12-31T18:41:46.850Z,18.70
2022-12-31T18:44:16.810Z,18.60
2022-12-31T18:46:45.851Z,18.60
2022-12-31T18:49:14.825Z,18.60
2022-12-31T18:51:43.787Z,18.60
2022-12-31T18:54:13.260Z,18.50
2022-12-31T18:56:47.664Z,18.50
2022-12-31T18:59:18.331Z,18.50
2022-12-31T19:01:47.453Z,18.50
2022-12-31T19:04:27.508Z,18.50
2022-12-31T19:06:57.627Z,18.40
2022-12-31T19:12:16.429Z,18.50
2022-12-31T19:14:46.559Z,18.40
2022-12-31T19:17:15.526Z,18.40
2022-12-31T19:19:44.509Z,18.40
2022-12-31T19:22:17.237Z,18.30
2022-12-31T19:24:46.217Z,18.40
2022-12-31T19:27:15.263Z,18.30
2022-12-31T19:29:44.208Z,18.30
2022-12-31T19:32:13.211Z,18.30
2022-12-31T19:34:42.244Z,18.30
2022-12-31T19:37:17.082Z,18.30
2022-12-31T19:39:46.063Z,18.30
2022-12-31T19:42:17.392Z,18.20
2022-12-31T19:44:46.384Z,18.20
2022-12-31T19:47:15.464Z,18.20
2022-12-31T19:49:44.421Z,18.20
2022-12-31T19:52:13.430Z,18.10
2022-12-31T19:54:42.565Z,18.20
2022-12-31T19:57:11.532Z,18.10
2022-12-31T19:59:40.478Z,18.10
2022-12-31T20:02:11.033Z,18.10
2022-12-31T20:04:40.195Z,18.10
2022-12-31T20:07:09.200Z,18.10
2022-12-31T20:09:38.212Z,18.00
2022-12-31T20:12:07.403Z,18.00
2022-12-31T20:14:36.340Z,18.00
2022-12-31T20:17:05.298Z,17.90
2022-12-31T20:19:34.659Z,17.90
2022-12-31T20:22:03.641Z,17.90
2022-12-31T20:24:32.645Z,17.90
2022-12-31T20:27:01.640Z,17.80
2022-12-31T20:29:30.757Z,17.80
2022-12-31T20:31:59.689Z,17.80
2022-12-31T20:34:28.873Z,17.70
2022-12-31T20:36:58.144Z,17.70
2022-12-31T20:39:27.114Z,17.70
2022-12-31T20:41:56.071Z,17.70
2022-12-31T20:44:25.140Z,17.70
2022-12-31T20:46:54.277Z,17.70
2022-12-31T20:49:37.521Z,17.70
2022-12-31T20:52:12.262Z,17.70
2022-12-31T20:54:41.519Z,17.70
2022-12-31T20:57:10.604Z,17.70
2022-12-31T20:59:40.339Z,17.60
2022-12-31T21:02:22.027Z,17.60
2022-12-31T21:04:52.012Z,17.60
2022-12-31T21:07:21.490Z,17.50
2022-12-31T21:09:50.465Z,17.50
2022-12-31T21:12:37.752Z,17.50
2022-12-31T21:15:07.242Z,17.50
2022-12-31T21:17:36.259Z,17.50
2022-12-31T21:20:06.404Z,17.50
2022-12-31T21:22:35.456Z,17.50
2022-12-31T21:25:04.875Z,17.50
2022-12-31T21:27:33.852Z,17.50
2022-12-31T21:30:18.432Z,17.40
2022-12-31T21:32:48.248Z,17.40
2022-12-31T21:38:08.613Z,17.40
2022-12-31T21:40:37.683Z,17.30
2022-12-31T21:43:06.708Z,17.30
2022-12-31T21:45:36.115Z,17.30
2022-12-31T21:48:21.617Z,17.30
2022-12-31T21:50:55.403Z,17.30
2022-12-31T21:53:32.135Z,17.20
2022-12-31T21:56:12.299Z,17.20
2022-12-31T21:58:44.733Z,17.20
2022-12-31T22:01:40.392Z,17.20
2022-12-31T22:04:28.115Z,17.20
2022-12-31T22:06:58.595Z,17.20
2022-12-31T22:09:27.576Z,17.20
2022-12-31T22:11:56.582Z,17.20
2022-12-31T22:14:25.548Z,17.20
2022-12-31T22:16:54.500Z,17.20
2022-12-31T22:19:23.744Z,17.20
2022-12-31T22:21:52.722Z,17.20
2022-12-31T22:24:21.671Z,17.10
2022-12-31T22:26:51.930Z,17.10
2022-12-31T22:29:22.597Z,17.10
2022-12-31T22:31:54.518Z,17.10
2022-12-31T22:34:27.653Z,17.10
2022-12-31T22:36:56.672Z,17.10
2022-12-31T22:39:43.781Z,17.10
2022-12-31T22:42:13.732Z,17.10
2022-12-31T22:44:42.652Z,17.00
2022-12-31T22:47:12.151Z,17.00
2022-12-31T22:49:41.232Z,16.90
2022-12-31T22:52:10.214Z,16.90
2022-12-31T22:54:39.176Z,16.90
2022-12-31T22:57:08.111Z,16.90
2022-12-31T22:59:37.165Z,16.80
2022-12-31T23:02:06.126Z,16.80
2022-12-31T23:04:35.110Z,16.70
2022-12-31T23:07:04.178Z,16.70
2022-12-31T23:09:51.038Z,16.70
2022-12-31T23:12:20.101Z,16.70
2022-12-31T23:15:07.666Z,16.60
2022-12-31T23:17:54.968Z,16.60
2022-12-31T23:20:44.152Z,16.60
2022-12-31T23:23:18.910Z,16.60
2022-12-31T23:25:50.290Z,16.50
2022-12-31T23:28:25.140Z,16.50
2022-12-31T23:30:54.721Z,16.50
2022-12-31T23:33:26.258Z,16.50
2022-12-31T23:36:08.533Z,16.50
2022-12-31T23:38:37.570Z,16.50
2022-12-31T23:41:20.868Z,16.50
2022-12-31T23:43:50.685Z,16.50
2022-12-31T23:46:19.635Z,16.50
2022-12-31T23:48:48.722Z,16.50
2022-12-31T23:51:17.721Z,16.50
2022-12-31T23:53:46.753Z,16.40
2022-12-31T23:56:23.605Z,16.40
2022-12-31T23:58:57.815Z,16.40
